sensor_id;sensor_type;location;lat;lon;timestamp;P1;durP1;ratioP1;P2;durP2;ratioP2
53207;SDS011;39093;52.788;6.940;2022-12-11T00:00:46;59.30;;;23.38;;
53207;SDS011;39093;52.788;6.940;2022-12-11T00:03:13;58.05;;;22.80;;
53207;SDS011;39093;52.788;6.940;2022-12-11T00:05:42;66.00;;;25.13;;
53207;SDS011;39093;52.788;6.940;2022-12-11T00:08:11;61.65;;;24.90;;
53207;SDS011;39093;52.788;6.940;2022-12-11T00:10:38;62.83;;;23.95;;
53207;SDS011;39093;52.788;6.940;2022-12-11T00:13:05;60.65;;;24.73;;
53207;SDS011;39093;52.788;6.940;2022-12-11T00:15:32;61.20;;;25.00;;
53207;SDS011;39093;52.788;6.940;2022-12-11T00:17:59;65.15;;;25.15;;
53207;SDS011;39093;52.788;6.940;2022-12-11T00:20:26;54.20;;;22.75;;
53207;SDS011;39093;52.788;6.940;2022-12-11T00:22:52;63.83;;;25.33;;
53207;SDS011;39093;52.788;6.940;2022-12-11T00:25:19;57.75;;;23.48;;
53207;SDS011;39093;52.788;6.940;2022-12-11T00:27:46;59.38;;;24.13;;
53207;SDS011;39093;52.788;6.940;2022-12-11T00:30:13;54.15;;;21.88;;
53207;SDS011;39093;52.788;6.940;2022-12-11T00:32:40;52.17;;;22.20;;
53207;SDS011;39093;52.788;6.940;2022-12-11T00:35:08;65.45;;;23.13;;
53207;SDS011;39093;52.788;6.940;2022-12-11T00:37:35;55.85;;;23.00;;
53207;SDS011;39093;52.788;6.940;2022-12-11T00:40:02;65.22;;;23.73;;
53207;SDS011;39093;52.788;6.940;2022-12-11T00:42:30;55.33;;;22.65;;
53207;SDS011;39093;52.788;6.940;2022-12-11T00:44:56;50.65;;;20.90;;
53207;SDS011;39093;52.788;6.940;2022-12-11T00:47:23;53.83;;;22.15;;
53207;SDS011;39093;52.788;6.940;2022-12-11T00:49:50;58.17;;;22.75;;
53207;SDS011;39093;52.788;6.940;2022-12-11T00:52:17;58.10;;;22.38;;
53207;SDS011;39093;52.788;6.940;2022-12-11T00:54:44;56.42;;;20.67;;
53207;SDS011;39093;52.788;6.940;2022-12-11T00:57:10;54.47;;;21.20;;
53207;SDS011;39093;52.788;6.940;2022-12-11T00:59:37;52.58;;;21.45;;
53207;SDS011;39093;52.788;6.940;2022-12-11T01:02:04;55.25;;;20.92;;
53207;SDS011;39093;52.788;6.940;2022-12-11T01:04:33;59.30;;;21.38;;
53207;SDS011;39093;52.788;6.940;2022-12-11T01:07:01;48.72;;;20.67;;
53207;SDS011;39093;52.788;6.940;2022-12-11T01:09:28;48.70;;;20.10;;
53207;SDS011;39093;52.788;6.940;2022-12-11T01:12:13;59.95;;;21.23;;
53207;SDS011;39093;52.788;6.940;2022-12-11T01:14:40;52.47;;;19.67;;
53207;SDS011;39093;52.788;6.940;2022-12-11T01:17:07;53.28;;;19.45;;
53207;SDS011;39093;52.788;6.940;2022-12-11T01:19:34;57.13;;;20.25;;
53207;SDS011;39093;52.788;6.940;2022-12-11T01:22:01;57.78;;;21.10;;
53207;SDS011;39093;52.788;6.940;2022-12-11T01:24:27;46.47;;;20.02;;
53207;SDS011;39093;52.788;6.940;2022-12-11T01:26:54;54.38;;;21.08;;
53207;SDS011;39093;52.788;6.940;2022-12-11T01:29:21;51.75;;;20.77;;
53207;SDS011;39093;52.788;6.940;2022-12-11T01:31:48;47.90;;;19.40;;
53207;SDS011;39093;52.788;6.940;2022-12-11T01:34:15;55.42;;;19.92;;
53207;SDS011;39093;52.788;6.940;2022-12-11T01:36:42;52.95;;;20.52;;
53207;SDS011;39093;52.788;6.940;2022-12-11T01:39:08;52.78;;;20.13;;
53207;SDS011;39093;52.788;6.940;2022-12-11T01:41:35;52.75;;;19.92;;
53207;SDS011;39093;52.788;6.940;2022-12-11T01:46:32;56.85;;;20.45;;
53207;SDS011;39093;52.788;6.940;2022-12-11T01:49:02;51.42;;;19.98;;
53207;SDS011;39093;52.788;6.940;2022-12-11T01:51:32;47.40;;;19.25;;
53207;SDS011;39093;52.788;6.940;2022-12-11T01:54:05;49.30;;;18.13;;
53207;SDS011;39093;52.788;6.940;2022-12-11T01:56:35;53.72;;;20.98;;
53207;SDS011;39093;52.788;6.940;2022-12-11T01:59:05;46.03;;;19.42;;
53207;SDS011;39093;52.788;6.940;2022-12-11T02:01:44;53.35;;;18.55;;
53207;SDS011;39093;52.788;6.940;2022-12-11T02:04:16;48.50;;;18.35;;
53207;SDS011;39093;52.788;6.940;2022-12-11T02:06:46;51.55;;;19.13;;
53207;SDS011;39093;52.788;6.940;2022-12-11T02:09:15;56.03;;;19.92;;
53207;SDS011;39093;52.788;6.940;2022-12-11T02:17:40;56.75;;;19.50;;
53207;SDS011;39093;52.788;6.940;2022-12-11T02:20:31;53.17;;;20.02;;
53207;SDS011;39093;52.788;6.940;2022-12-11T02:23:23;50.67;;;19.42;;
53207;SDS011;39093;52.788;6.940;2022-12-11T02:28:45;48.15;;;18.00;;
53207;SDS011;39093;52.788;6.940;2022-12-11T02:31:21;48.60;;;19.17;;
53207;SDS011;39093;52.788;6.940;2022-12-11T02:34:00;50.90;;;19.63;;
53207;SDS011;39093;52.788;6.940;2022-12-11T02:36:38;41.88;;;17.45;;
53207;SDS011;39093;52.788;6.940;2022-12-11T02:39:09;48.25;;;19.38;;
53207;SDS011;39093;52.788;6.940;2022-12-11T02:41:42;51.78;;;20.35;;
53207;SDS011;39093;52.788;6.940;2022-12-11T02:44:13;53.10;;;19.98;;
53207;SDS011;39093;52.788;6.940;2022-12-11T02:46:42;48.13;;;19.80;;
53207;SDS011;39093;52.788;6.940;2022-12-11T02:49:10;50.85;;;18.92;;
53207;SDS011;39093;52.788;6.940;2022-12-11T02:51:39;56.80;;;22.48;;
53207;SDS011;39093;52.788;6.940;2022-12-11T02:54:10;49.55;;;20.10;;
53207;SDS011;39093;52.788;6.940;2022-12-11T02:56:56;54.25;;;20.60;;
53207;SDS011;39093;52.788;6.940;2022-12-11T02:59:32;56.28;;;20.30;;
53207;SDS011;39093;52.788;6.940;2022-12-11T03:04:30;55.92;;;20.58;;
53207;SDS011;39093;52.788;6.940;2022-12-11T03:07:01;54.97;;;19.83;;
53207;SDS011;39093;52.788;6.940;2022-12-11T03:09:38;58.30;;;20.67;;
53207;SDS011;39093;52.788;6.940;2022-12-11T03:12:06;52.15;;;21.30;;
53207;SDS011;39093;52.788;6.940;2022-12-11T03:14:36;54.75;;;19.63;;
53207;SDS011;39093;52.788;6.940;2022-12-11T03:19:48;54.50;;;20.35;;
53207;SDS011;39093;52.788;6.940;2022-12-11T03:22:48;60.28;;;21.08;;
53207;SDS011;39093;52.788;6.940;2022-12-11T03:25:25;59.88;;;20.75;;
53207;SDS011;39093;52.788;6.940;2022-12-11T03:28:07;62.35;;;21.45;;
53207;SDS011;39093;52.788;6.940;2022-12-11T03:33:08;56.55;;;20.70;;
53207;SDS011;39093;52.788;6.940;2022-12-11T03:35:47;58.08;;;21.08;;
53207;SDS011;39093;52.788;6.940;2022-12-11T03:38:29;50.00;;;19.25;;
53207;SDS011;39093;52.788;6.940;2022-12-11T03:41:00;50.72;;;19.40;;
53207;SDS011;39093;52.788;6.940;2022-12-11T03:43:28;60.72;;;21.20;;
53207;SDS011;39093;52.788;6.940;2022-12-11T03:45:57;62.13;;;21.65;;
53207;SDS011;39093;52.788;6.940;2022-12-11T03:48:27;64.50;;;21.73;;
53207;SDS011;39093;52.788;6.940;2022-12-11T03:50:58;59.67;;;21.43;;
53207;SDS011;39093;52.788;6.940;2022-12-11T03:53:27;58.22;;;21.35;;
53207;SDS011;39093;52.788;6.940;2022-12-11T03:55:55;55.83;;;20.48;;
53207;SDS011;39093;52.788;6.940;2022-12-11T03:58:24;64.70;;;22.70;;
53207;SDS011;39093;52.788;6.940;2022-12-11T04:00:51;59.28;;;21.55;;
53207;SDS011;39093;52.788;6.940;2022-12-11T04:03:18;64.30;;;21.58;;
53207;SDS011;39093;52.788;6.940;2022-12-11T04:05:49;63.75;;;22.40;;
53207;SDS011;39093;52.788;6.940;2022-12-11T04:08:18;63.40;;;21.80;;
53207;SDS011;39093;52.788;6.940;2022-12-11T04:10:46;63.90;;;21.73;;
53207;SDS011;39093;52.788;6.940;2022-12-11T04:13:14;70.75;;;22.60;;
53207;SDS011;39093;52.788;6.940;2022-12-11T04:15:41;67.50;;;23.85;;
53207;SDS011;39093;52.788;6.940;2022-12-11T04:18:08;72.97;;;24.15;;
53207;SDS011;39093;52.788;6.940;2022-12-11T04:20:54;64.72;;;21.92;;
53207;SDS011;39093;52.788;6.940;2022-12-11T04:23:40;63.72;;;22.67;;
53207;SDS011;39093;52.788;6.940;2022-12-11T04:26:26;67.70;;;23.60;;
53207;SDS011;39093;52.788;6.940;2022-12-11T04:28:53;69.60;;;24.10;;
53207;SDS011;39093;52.788;6.940;2022-12-11T04:31:20;74.13;;;24.38;;
53207;SDS011;39093;52.788;6.940;2022-12-11T04:33:48;73.15;;;23.77;;
53207;SDS011;39093;52.788;6.940;2022-12-11T04:36:15;71.10;;;24.90;;
53207;SDS011;39093;52.788;6.940;2022-12-11T04:38:42;85.13;;;25.48;;
53207;SDS011;39093;52.788;6.940;2022-12-11T04:41:11;65.95;;;23.75;;
53207;SDS011;39093;52.788;6.940;2022-12-11T04:43:40;67.75;;;23.75;;
53207;SDS011;39093;52.788;6.940;2022-12-11T04:46:17;66.93;;;23.75;;
53207;SDS011;39093;52.788;6.940;2022-12-11T04:48:46;67.78;;;23.75;;
53207;SDS011;39093;52.788;6.940;2022-12-11T04:51:20;69.35;;;25.02;;
53207;SDS011;39093;52.788;6.940;2022-12-11T04:53:47;73.80;;;25.42;;
53207;SDS011;39093;52.788;6.940;2022-12-11T04:56:14;79.75;;;25.48;;
53207;SDS011;39093;52.788;6.940;2022-12-11T04:58:42;79.90;;;26.17;;
53207;SDS011;39093;52.788;6.940;2022-12-11T05:01:12;70.93;;;25.52;;
53207;SDS011;39093;52.788;6.940;2022-12-11T05:03:45;66.22;;;24.75;;
53207;SDS011;39093;52.788;6.940;2022-12-11T05:06:12;73.13;;;26.25;;
53207;SDS011;39093;52.788;6.940;2022-12-11T05:08:40;77.32;;;24.60;;
53207;SDS011;39093;52.788;6.940;2022-12-11T05:11:08;78.88;;;25.35;;
53207;SDS011;39093;52.788;6.940;2022-12-11T05:13:38;81.13;;;25.70;;
53207;SDS011;39093;52.788;6.940;2022-12-11T05:16:06;75.32;;;24.70;;
53207;SDS011;39093;52.788;6.940;2022-12-11T05:18:35;68.68;;;24.58;;
53207;SDS011;39093;52.788;6.940;2022-12-11T05:21:03;71.78;;;25.38;;
53207;SDS011;39093;52.788;6.940;2022-12-11T05:23:32;78.10;;;26.40;;
53207;SDS011;39093;52.788;6.940;2022-12-11T05:26:00;76.80;;;25.48;;
53207;SDS011;39093;52.788;6.940;2022-12-11T05:28:31;74.70;;;25.75;;
53207;SDS011;39093;52.788;6.940;2022-12-11T05:31:13;67.05;;;24.15;;
53207;SDS011;39093;52.788;6.940;2022-12-11T05:33:42;67.15;;;23.35;;
53207;SDS011;39093;52.788;6.940;2022-12-11T05:36:44;66.95;;;24.20;;
53207;SDS011;39093;52.788;6.940;2022-12-11T05:39:04;70.53;;;24.80;;
53207;SDS011;39093;52.788;6.940;2022-12-11T05:41:31;69.00;;;23.88;;
53207;SDS011;39093;52.788;6.940;2022-12-11T05:43:58;71.32;;;23.50;;
53207;SDS011;39093;52.788;6.940;2022-12-11T05:46:26;64.13;;;23.85;;
53207;SDS011;39093;52.788;6.940;2022-12-11T05:48:55;66.90;;;24.38;;
53207;SDS011;39093;52.788;6.940;2022-12-11T05:51:24;67.72;;;24.13;;
53207;SDS011;39093;52.788;6.940;2022-12-11T05:53:51;70.80;;;27.95;;
53207;SDS011;39093;52.788;6.940;2022-12-11T05:56:20;74.22;;;24.63;;
53207;SDS011;39093;52.788;6.940;2022-12-11T05:58:52;79.78;;;25.67;;
53207;SDS011;39093;52.788;6.940;2022-12-11T06:01:20;74.60;;;24.98;;
53207;SDS011;39093;52.788;6.940;2022-12-11T06:03:49;70.93;;;25.88;;
53207;SDS011;39093;52.788;6.940;2022-12-11T06:06:16;69.70;;;25.15;;
53207;SDS011;39093;52.788;6.940;2022-12-11T06:08:43;73.85;;;26.63;;
53207;SDS011;39093;52.788;6.940;2022-12-11T06:11:13;72.20;;;24.98;;
53207;SDS011;39093;52.788;6.940;2022-12-11T06:13:47;60.00;;;22.67;;
53207;SDS011;39093;52.788;6.940;2022-12-11T06:16:14;76.70;;;25.38;;
53207;SDS011;39093;52.788;6.940;2022-12-11T06:18:42;69.63;;;25.27;;
53207;SDS011;39093;52.788;6.940;2022-12-11T06:21:11;67.53;;;25.58;;
53207;SDS011;39093;52.788;6.940;2022-12-11T06:23:45;83.80;;;25.10;;
53207;SDS011;39093;52.788;6.940;2022-12-11T06:26:13;77.05;;;24.63;;
53207;SDS011;39093;52.788;6.940;2022-12-11T06:28:40;67.93;;;25.10;;
53207;SDS011;39093;52.788;6.940;2022-12-11T06:31:08;68.28;;;25.63;;
53207;SDS011;39093;52.788;6.940;2022-12-11T06:33:35;68.40;;;25.23;;
53207;SDS011;39093;52.788;6.940;2022-12-11T06:36:06;73.40;;;25.90;;
53207;SDS011;39093;52.788;6.940;2022-12-11T06:38:35;76.50;;;23.75;;
53207;SDS011;39093;52.788;6.940;2022-12-11T06:41:05;67.60;;;24.60;;
53207;SDS011;39093;52.788;6.940;2022-12-11T06:43:33;68.45;;;24.58;;
53207;SDS011;39093;52.788;6.940;2022-12-11T06:46:05;67.05;;;25.05;;
53207;SDS011;39093;52.788;6.940;2022-12-11T06:48:33;80.03;;;26.08;;
53207;SDS011;39093;52.788;6.940;2022-12-11T06:51:08;63.45;;;24.33;;
53207;SDS011;39093;52.788;6.940;2022-12-11T06:53:36;71.38;;;23.80;;
53207;SDS011;39093;52.788;6.940;2022-12-11T06:56:05;71.90;;;23.17;;
53207;SDS011;39093;52.788;6.940;2022-12-11T06:58:34;65.28;;;24.50;;
53207;SDS011;39093;52.788;6.940;2022-12-11T07:01:02;67.05;;;23.80;;
53207;SDS011;39093;52.788;6.940;2022-12-11T07:03:30;70.45;;;24.45;;
53207;SDS011;39093;52.788;6.940;2022-12-11T07:05:59;67.75;;;25.27;;
53207;SDS011;39093;52.788;6.940;2022-12-11T07:08:27;71.88;;;25.95;;
53207;SDS011;39093;52.788;6.940;2022-12-11T07:11:00;72.22;;;25.77;;
53207;SDS011;39093;52.788;6.940;2022-12-11T07:13:31;72.55;;;24.77;;
53207;SDS011;39093;52.788;6.940;2022-12-11T07:15:59;69.00;;;25.45;;
53207;SDS011;39093;52.788;6.940;2022-12-11T07:18:27;74.80;;;25.05;;
53207;SDS011;39093;52.788;6.940;2022-12-11T07:20:56;67.97;;;23.58;;
53207;SDS011;39093;52.788;6.940;2022-12-11T07:23:26;78.55;;;25.65;;
53207;SDS011;39093;52.788;6.940;2022-12-11T07:25:54;75.97;;;27.95;;
53207;SDS011;39093;52.788;6.940;2022-12-11T07:28:21;80.60;;;27.88;;
53207;SDS011;39093;52.788;6.940;2022-12-11T07:30:48;71.10;;;26.48;;
53207;SDS011;39093;52.788;6.940;2022-12-11T07:33:15;71.82;;;25.13;;
53207;SDS011;39093;52.788;6.940;2022-12-11T07:35:42;69.40;;;25.20;;
53207;SDS011;39093;52.788;6.940;2022-12-11T07:38:09;71.45;;;25.38;;
53207;SDS011;39093;52.788;6.940;2022-12-11T07:40:36;78.20;;;26.27;;
53207;SDS011;39093;52.788;6.940;2022-12-11T07:43:02;76.00;;;24.80;;
53207;SDS011;39093;52.788;6.940;2022-12-11T07:45:29;65.30;;;23.75;;
53207;SDS011;39093;52.788;6.940;2022-12-11T07:47:57;66.45;;;24.95;;
53207;SDS011;39093;52.788;6.940;2022-12-11T07:50:24;77.40;;;27.90;;
53207;SDS011;39093;52.788;6.940;2022-12-11T07:52:51;69.85;;;25.13;;
53207;SDS011;39093;52.788;6.940;2022-12-11T07:55:17;74.22;;;26.85;;
53207;SDS011;39093;52.788;6.940;2022-12-11T07:57:44;72.90;;;24.95;;
53207;SDS011;39093;52.788;6.940;2022-12-11T08:00:11;64.65;;;24.48;;
53207;SDS011;39093;52.788;6.940;2022-12-11T08:02:38;63.80;;;25.20;;
53207;SDS011;39093;52.788;6.940;2022-12-11T08:05:05;66.70;;;24.25;;
53207;SDS011;39093;52.788;6.940;2022-12-11T08:07:34;65.80;;;24.80;;
53207;SDS011;39093;52.788;6.940;2022-12-11T08:10:01;56.97;;;22.70;;
53207;SDS011;39093;52.788;6.940;2022-12-11T08:12:29;70.22;;;24.88;;
53207;SDS011;39093;52.788;6.940;2022-12-11T08:14:56;67.78;;;24.33;;
53207;SDS011;39093;52.788;6.940;2022-12-11T08:17:23;68.78;;;24.52;;
53207;SDS011;39093;52.788;6.940;2022-12-11T08:19:56;63.28;;;25.25;;
53207;SDS011;39093;52.788;6.940;2022-12-11T08:22:23;57.42;;;24.50;;
53207;SDS011;39093;52.788;6.940;2022-12-11T08:24:49;63.42;;;24.05;;
53207;SDS011;39093;52.788;6.940;2022-12-11T08:27:16;72.50;;;24.63;;
53207;SDS011;39093;52.788;6.940;2022-12-11T08:29:43;70.43;;;24.88;;
53207;SDS011;39093;52.788;6.940;2022-12-11T08:32:11;64.60;;;22.73;;
53207;SDS011;39093;52.788;6.940;2022-12-11T08:34:40;60.42;;;23.92;;
53207;SDS011;39093;52.788;6.940;2022-12-11T08:37:08;67.32;;;24.73;;
53207;SDS011;39093;52.788;6.940;2022-12-11T08:39:35;56.42;;;22.75;;
53207;SDS011;39093;52.788;6.940;2022-12-11T08:42:01;68.80;;;24.17;;
53207;SDS011;39093;52.788;6.940;2022-12-11T08:44:28;64.43;;;23.13;;
53207;SDS011;39093;52.788;6.940;2022-12-11T08:46:55;56.80;;;23.95;;
53207;SDS011;39093;52.788;6.940;2022-12-11T08:49:22;68.82;;;23.00;;
53207;SDS011;39093;52.788;6.940;2022-12-11T08:51:49;58.65;;;23.98;;
53207;SDS011;39093;52.788;6.940;2022-12-11T08:54:16;75.82;;;24.33;;
53207;SDS011;39093;52.788;6.940;2022-12-11T08:56:43;63.75;;;23.45;;
53207;SDS011;39093;52.788;6.940;2022-12-11T08:59:09;66.15;;;24.45;;
53207;SDS011;39093;52.788;6.940;2022-12-11T09:01:36;58.63;;;23.83;;
53207;SDS011;39093;52.788;6.940;2022-12-11T09:04:03;75.03;;;25.23;;
53207;SDS011;39093;52.788;6.940;2022-12-11T09:06:31;65.65;;;23.52;;
53207;SDS011;39093;52.788;6.940;2022-12-11T09:08:59;69.03;;;24.40;;
53207;SDS011;39093;52.788;6.940;2022-12-11T09:11:28;64.60;;;23.70;;
53207;SDS011;39093;52.788;6.940;2022-12-11T09:13:57;64.00;;;23.20;;
53207;SDS011;39093;52.788;6.940;2022-12-11T09:16:32;60.40;;;21.98;;
53207;SDS011;39093;52.788;6.940;2022-12-11T09:19:02;62.40;;;23.23;;
53207;SDS011;39093;52.788;6.940;2022-12-11T09:21:29;57.42;;;23.02;;
53207;SDS011;39093;52.788;6.940;2022-12-11T09:23:57;54.50;;;22.83;;
53207;SDS011;39093;52.788;6.940;2022-12-11T09:26:25;63.78;;;25.98;;
53207;SDS011;39093;52.788;6.940;2022-12-11T09:28:53;57.65;;;23.30;;
53207;SDS011;39093;52.788;6.940;2022-12-11T09:31:22;72.13;;;24.70;;
53207;SDS011;39093;52.788;6.940;2022-12-11T09:33:53;61.45;;;23.25;;
53207;SDS011;39093;52.788;6.940;2022-12-11T09:36:22;61.60;;;24.52;;
53207;SDS011;39093;52.788;6.940;2022-12-11T09:38:49;71.43;;;24.90;;
53207;SDS011;39093;52.788;6.940;2022-12-11T09:46:25;64.80;;;24.90;;
53207;SDS011;39093;52.788;6.940;2022-12-11T09:48:59;64.28;;;23.02;;
53207;SDS011;39093;52.788;6.940;2022-12-11T09:53:59;55.45;;;22.83;;
53207;SDS011;39093;52.788;6.940;2022-12-11T09:59:23;60.63;;;23.65;;
53207;SDS011;39093;52.788;6.940;2022-12-11T10:05:01;61.35;;;21.83;;
53207;SDS011;39093;52.788;6.940;2022-12-11T10:07:45;58.78;;;22.13;;
53207;SDS011;39093;52.788;6.940;2022-12-11T10:10:17;56.90;;;23.95;;
53207;SDS011;39093;52.788;6.940;2022-12-11T10:15:51;66.53;;;25.50;;
53207;SDS011;39093;52.788;6.940;2022-12-11T10:18:24;54.45;;;22.45;;
53207;SDS011;39093;52.788;6.940;2022-12-11T10:20:54;58.95;;;23.25;;
53207;SDS011;39093;52.788;6.940;2022-12-11T10:23:33;59.17;;;23.80;;
53207;SDS011;39093;52.788;6.940;2022-12-11T10:26:16;55.40;;;22.27;;
53207;SDS011;39093;52.788;6.940;2022-12-11T10:28:45;61.70;;;24.47;;
53207;SDS011;39093;52.788;6.940;2022-12-11T10:31:16;60.03;;;24.92;;
53207;SDS011;39093;52.788;6.940;2022-12-11T10:34:03;60.38;;;24.13;;
53207;SDS011;39093;52.788;6.940;2022-12-11T10:36:56;66.70;;;24.10;;
53207;SDS011;39093;52.788;6.940;2022-12-11T10:39:25;57.53;;;24.38;;
53207;SDS011;39093;52.788;6.940;2022-12-11T10:41:53;56.38;;;22.85;;
53207;SDS011;39093;52.788;6.940;2022-12-11T10:44:25;62.88;;;23.77;;
53207;SDS011;39093;52.788;6.940;2022-12-11T10:47:02;65.97;;;24.05;;
53207;SDS011;39093;52.788;6.940;2022-12-11T10:49:32;61.38;;;23.50;;
53207;SDS011;39093;52.788;6.940;2022-12-11T10:52:00;62.92;;;22.80;;
53207;SDS011;39093;52.788;6.940;2022-12-11T10:54:42;55.70;;;22.90;;
53207;SDS011;39093;52.788;6.940;2022-12-11T10:57:12;62.83;;;24.52;;
53207;SDS011;39093;52.788;6.940;2022-12-11T11:02:22;59.58;;;23.67;;
53207;SDS011;39093;52.788;6.940;2022-12-11T11:04:52;60.70;;;23.48;;
53207;SDS011;39093;52.788;6.940;2022-12-11T11:07:25;58.90;;;23.02;;
53207;SDS011;39093;52.788;6.940;2022-12-11T11:12:45;55.50;;;21.27;;
53207;SDS011;39093;52.788;6.940;2022-12-11T11:15:18;58.58;;;24.33;;
53207;SDS011;39093;52.788;6.940;2022-12-11T11:17:53;56.80;;;23.95;;
53207;SDS011;39093;52.788;6.940;2022-12-11T11:20:22;61.08;;;24.80;;
53207;SDS011;39093;52.788;6.940;2022-12-11T11:22:55;67.15;;;24.65;;
53207;SDS011;39093;52.788;6.940;2022-12-11T11:27:56;61.67;;;24.85;;
53207;SDS011;39093;52.788;6.940;2022-12-11T11:32:50;60.28;;;24.60;;
53207;SDS011;39093;52.788;6.940;2022-12-11T11:35:23;64.05;;;23.55;;
53207;SDS011;39093;52.788;6.940;2022-12-11T11:40:41;62.78;;;24.98;;
53207;SDS011;39093;52.788;6.940;2022-12-11T11:51:06;65.47;;;23.85;;
53207;SDS011;39093;52.788;6.940;2022-12-11T11:53:40;56.53;;;22.90;;
53207;SDS011;39093;52.788;6.940;2022-12-11T12:01:56;53.30;;;21.17;;
53207;SDS011;39093;52.788;6.940;2022-12-11T12:04:30;54.30;;;22.08;;
53207;SDS011;39093;52.788;6.940;2022-12-11T12:09:52;56.95;;;22.67;;
53207;SDS011;39093;52.788;6.940;2022-12-11T12:21:23;53.13;;;22.33;;
53207;SDS011;39093;52.788;6.940;2022-12-11T12:26:45;50.10;;;22.67;;
53207;SDS011;39093;52.788;6.940;2022-12-11T12:35:03;57.00;;;24.20;;
53207;SDS011;39093;52.788;6.940;2022-12-11T12:44:05;59.60;;;24.33;;
53207;SDS011;39093;52.788;6.940;2022-12-11T12:47:02;60.42;;;25.20;;
53207;SDS011;39093;52.788;6.940;2022-12-11T12:49:49;61.22;;;23.88;;
53207;SDS011;39093;52.788;6.940;2022-12-11T12:52:31;61.42;;;24.92;;
53207;SDS011;39093;52.788;6.940;2022-12-11T12:55:14;69.63;;;25.45;;
53207;SDS011;39093;52.788;6.940;2022-12-11T12:57:55;60.38;;;24.25;;
53207;SDS011;39093;52.788;6.940;2022-12-11T13:05:58;56.97;;;24.08;;
53207;SDS011;39093;52.788;6.940;2022-12-11T13:08:27;62.40;;;24.48;;
53207;SDS011;39093;52.788;6.940;2022-12-11T13:11:06;60.70;;;23.15;;
53207;SDS011;39093;52.788;6.940;2022-12-11T13:18:43;65.07;;;24.30;;
53207;SDS011;39093;52.788;6.940;2022-12-11T13:26:46;61.42;;;25.15;;
53207;SDS011;39093;52.788;6.940;2022-12-11T13:29:33;54.97;;;23.83;;
53207;SDS011;39093;52.788;6.940;2022-12-11T13:34:36;53.63;;;24.73;;
53207;SDS011;39093;52.788;6.940;2022-12-11T13:37:05;57.72;;;24.27;;
53207;SDS011;39093;52.788;6.940;2022-12-11T13:39:45;64.20;;;25.90;;
53207;SDS011;39093;52.788;6.940;2022-12-11T13:42:20;63.80;;;24.30;;
53207;SDS011;39093;52.788;6.940;2022-12-11T13:44:59;61.78;;;24.17;;
53207;SDS011;39093;52.788;6.940;2022-12-11T13:47:27;56.22;;;23.50;;
53207;SDS011;39093;52.788;6.940;2022-12-11T13:50:10;68.25;;;25.58;;
53207;SDS011;39093;52.788;6.940;2022-12-11T13:52:54;62.80;;;24.77;;
53207;SDS011;39093;52.788;6.940;2022-12-11T13:55:30;55.95;;;23.85;;
53207;SDS011;39093;52.788;6.940;2022-12-11T13:57:59;65.25;;;24.40;;
53207;SDS011;39093;52.788;6.940;2022-12-11T14:00:30;65.03;;;27.00;;
53207;SDS011;39093;52.788;6.940;2022-12-11T14:02:59;66.30;;;25.33;;
53207;SDS011;39093;52.788;6.940;2022-12-11T14:05:32;69.07;;;24.83;;
53207;SDS011;39093;52.788;6.940;2022-12-11T14:08:01;66.82;;;26.25;;
53207;SDS011;39093;52.788;6.940;2022-12-11T14:10:34;60.53;;;23.92;;
53207;SDS011;39093;52.788;6.940;2022-12-11T14:13:03;55.83;;;23.40;;
53207;SDS011;39093;52.788;6.940;2022-12-11T14:15:33;61.42;;;25.63;;
53207;SDS011;39093;52.788;6.940;2022-12-11T14:18:01;61.92;;;24.60;;
53207;SDS011;39093;52.788;6.940;2022-12-11T14:20:30;55.97;;;23.45;;
53207;SDS011;39093;52.788;6.940;2022-12-11T14:23:15;68.82;;;26.23;;
53207;SDS011;39093;52.788;6.940;2022-12-11T14:28:44;61.40;;;23.42;;
53207;SDS011;39093;52.788;6.940;2022-12-11T14:31:13;59.05;;;25.45;;
53207;SDS011;39093;52.788;6.940;2022-12-11T14:33:45;58.72;;;22.92;;
53207;SDS011;39093;52.788;6.940;2022-12-11T14:36:15;51.77;;;23.03;;
53207;SDS011;39093;52.788;6.940;2022-12-11T14:38:44;58.03;;;24.58;;
53207;SDS011;39093;52.788;6.940;2022-12-11T14:41:28;64.10;;;24.88;;
53207;SDS011;39093;52.788;6.940;2022-12-11T14:44:05;63.35;;;25.30;;
53207;SDS011;39093;52.788;6.940;2022-12-11T14:46:35;63.80;;;24.60;;
53207;SDS011;39093;52.788;6.940;2022-12-11T14:49:20;62.78;;;25.30;;
53207;SDS011;39093;52.788;6.940;2022-12-11T14:52:00;61.72;;;24.48;;
53207;SDS011;39093;52.788;6.940;2022-12-11T14:54:34;64.88;;;25.70;;
53207;SDS011;39093;52.788;6.940;2022-12-11T14:57:07;63.92;;;24.98;;
53207;SDS011;39093;52.788;6.940;2022-12-11T14:59:44;62.85;;;24.23;;
53207;SDS011;39093;52.788;6.940;2022-12-11T15:02:24;62.17;;;25.38;;
53207;SDS011;39093;52.788;6.940;2022-12-11T15:07:40;60.60;;;23.60;;
53207;SDS011;39093;52.788;6.940;2022-12-11T15:10:21;64.95;;;24.90;;
53207;SDS011;39093;52.788;6.940;2022-12-11T15:12:52;61.88;;;25.38;;
53207;SDS011;39093;52.788;6.940;2022-12-11T15:15:20;58.15;;;26.23;;
53207;SDS011;39093;52.788;6.940;2022-12-11T15:17:47;63.72;;;25.25;;
53207;SDS011;39093;52.788;6.940;2022-12-11T15:20:25;63.38;;;24.73;;
53207;SDS011;39093;52.788;6.940;2022-12-11T15:22:56;58.75;;;24.38;;
53207;SDS011;39093;52.788;6.940;2022-12-11T15:25:25;56.38;;;24.20;;
53207;SDS011;39093;52.788;6.940;2022-12-11T15:27:55;49.20;;;21.23;;
53207;SDS011;39093;52.788;6.940;2022-12-11T15:33:27;57.25;;;24.17;;
53207;SDS011;39093;52.788;6.940;2022-12-11T15:38:26;51.63;;;23.00;;
53207;SDS011;39093;52.788;6.940;2022-12-11T15:40:56;53.42;;;22.80;;
53207;SDS011;39093;52.788;6.940;2022-12-11T15:43:23;59.85;;;24.90;;
53207;SDS011;39093;52.788;6.940;2022-12-11T15:45:51;51.83;;;23.42;;
53207;SDS011;39093;52.788;6.940;2022-12-11T15:48:18;50.50;;;24.23;;
53207;SDS011;39093;52.788;6.940;2022-12-11T15:50:44;54.25;;;23.85;;
53207;SDS011;39093;52.788;6.940;2022-12-11T15:53:11;52.15;;;23.70;;
53207;SDS011;39093;52.788;6.940;2022-12-11T15:55:39;58.03;;;23.63;;
53207;SDS011;39093;52.788;6.940;2022-12-11T15:58:06;52.92;;;22.65;;
53207;SDS011;39093;52.788;6.940;2022-12-11T16:00:39;50.17;;;22.02;;
53207;SDS011;39093;52.788;6.940;2022-12-11T16:03:05;54.33;;;22.98;;
53207;SDS011;39093;52.788;6.940;2022-12-11T16:05:34;52.22;;;23.58;;
53207;SDS011;39093;52.788;6.940;2022-12-11T16:08:01;49.25;;;23.27;;
53207;SDS011;39093;52.788;6.940;2022-12-11T16:10:28;54.55;;;23.85;;
53207;SDS011;39093;52.788;6.940;2022-12-11T16:12:55;49.10;;;21.67;;
53207;SDS011;39093;52.788;6.940;2022-12-11T16:15:25;46.72;;;22.23;;
53207;SDS011;39093;52.788;6.940;2022-12-11T16:18:02;47.78;;;22.45;;
53207;SDS011;39093;52.788;6.940;2022-12-11T16:20:31;47.10;;;21.42;;
53207;SDS011;39093;52.788;6.940;2022-12-11T16:23:00;44.33;;;22.52;;
53207;SDS011;39093;52.788;6.940;2022-12-11T16:25:27;51.22;;;21.80;;
53207;SDS011;39093;52.788;6.940;2022-12-11T16:27:55;45.78;;;22.52;;
53207;SDS011;39093;52.788;6.940;2022-12-11T16:30:23;42.33;;;21.52;;
53207;SDS011;39093;52.788;6.940;2022-12-11T16:32:51;45.38;;;21.55;;
53207;SDS011;39093;52.788;6.940;2022-12-11T16:35:18;40.55;;;19.48;;
53207;SDS011;39093;52.788;6.940;2022-12-11T16:37:48;43.53;;;19.58;;
53207;SDS011;39093;52.788;6.940;2022-12-11T16:40:17;44.03;;;21.08;;